Time;durP1;ratioP1;P1;durP2;ratioP2;P2;SDS_P1;SDS_P2;PMS_P1;PMS_P2;Temp;Humidity;BMP_temperature;BMP_pressure;BME280_temperature;BME280_humidity;BME280_pressure;Samples;Min_cycle;Max_cycle;Signal;HPM_P1;HPM_P2
2022/03/04 00:02:20;;;;;;;4.65;1.77;;;;;;;15.95;40.39;101909.75;4957010;28;20032;-80
2022/03/04 00:04:46;;;;;;;3.28;1.52;;;;;;;15.95;40.61;101908.94;4956810;28;20127;-80
2022/03/04 00:07:12;;;;;;;4.63;2.00;;;;;;;15.88;40.55;101912.19;4955576;29;20027;-83
2022/03/04 00:09:37;;;;;;;2.72;1.40;;;;;;;15.86;40.37;101911.66;4955486;29;20031;-80
2022/03/04 00:12:03;;;;;;;5.95;2.10;;;;;;;15.84;40.48;101922.19;4955316;28;20482;-84
2022/03/04 00:14:30;;;;;;;3.97;1.77;;;;;;;15.77;40.64;101913.59;4956510;28;20034;-85
2022/03/04 00:16:56;;;;;;;2.42;1.60;;;;;;;15.74;40.46;101917.81;4956678;28;20093;-80
2022/03/04 00:19:21;;;;;;;4.28;1.90;;;;;;;15.56;40.90;101918.81;4956540;28;20058;-80
2022/03/04 00:21:49;;;;;;;1.85;1.40;;;;;;;15.51;40.65;101917.03;4956445;28;20060;-79
2022/03/04 00:24:17;;;;;;;4.47;1.60;;;;;;;15.48;40.75;101909.41;4955277;29;20489;-80
2022/03/04 00:26:43;;;;;;;5.55;2.20;;;;;;;15.43;40.83;101909.56;4955079;29;20031;-86
2022/03/04 00:29:09;;;;;;;6.97;2.10;;;;;;;15.44;40.75;101915.88;4956053;28;20035;-81
2022/03/04 00:31:35;;;;;;;5.75;2.22;;;;;;;15.44;40.51;101921.38;4956275;28;20027;-80
2022/03/04 00:34:06;;;;;;;4.88;2.30;;;;;;;15.38;40.25;101922.66;4955207;29;20401;-84
2022/03/04 00:36:32;;;;;;;3.47;1.80;;;;;;;15.28;40.90;101920.97;4954994;29;20118;-85
2022/03/04 00:38:58;;;;;;;4.72;1.95;;;;;;;15.14;40.94;101934.03;4954992;29;20126;-85
2022/03/04 00:41:23;;;;;;;2.53;1.48;;;;;;;15.08;41.16;101932.53;4955136;29;20174;-80
2022/03/04 00:43:50;;;;;;;5.95;1.90;;;;;;;15.06;41.08;101932.03;4956017;28;20031;-85
2022/03/04 00:46:17;;;;;;;4.32;1.80;;;;;;;15.03;41.28;101936.19;4956239;28;20031;-82
2022/03/04 00:48:44;;;;;;;4.35;1.50;;;;;;;14.90;41.51;101943.41;4956029;28;20129;-80
2022/03/04 00:51:11;;;;;;;3.28;1.80;;;;;;;14.86;41.95;101934.16;4955862;28;20024;-80
2022/03/04 00:53:37;;;;;;;4.28;1.80;;;;;;;14.92;41.65;101938.41;4954645;29;20417;-80
2022/03/04 00:56:03;;;;;;;3.35;1.75;;;;;;;14.92;41.73;101940.34;4954595;29;20474;-80
2022/03/04 00:58:29;;;;;;;3.70;1.70;;;;;;;15.04;41.26;101939.75;4954708;29;20042;-82
2022/03/04 01:00:55;;;;;;;7.13;1.60;;;;;;;15.04;41.34;101940.59;4954620;29;20486;-79
2022/03/04 01:03:20;;;;;;;4.30;1.77;;;;;;;15.10;41.18;101933.81;4954512;29;20031;-80
2022/03/04 01:05:46;;;;;;;3.05;1.48;;;;;;;15.10;41.26;101933.00;4954425;29;20034;-80
2022/03/04 01:08:12;;;;;;;7.28;2.45;;;;;;;15.17;41.30;101936.13;4954172;29;20031;-80
2022/03/04 01:10:37;;;;;;;3.17;1.58;;;;;;;15.00;41.49;101945.09;4955557;28;20054;-80
2022/03/04 01:13:03;;;;;;;4.82;2.00;;;;;;;14.99;41.47;101946.22;4955554;28;20070;-84
2022/03/04 01:15:29;;;;;;;3.33;1.60;;;;;;;15.02;41.52;101945.59;4954050;29;20038;-81
2022/03/04 01:17:55;;;;;;;2.47;1.67;;;;;;;15.35;40.81;101942.56;4954253;29;20035;-80
2022/03/04 01:20:20;;;;;;;3.03;1.95;;;;;;;15.70;40.00;101949.06;4955472;28;20047;-85
2022/03/04 01:22:46;;;;;;;4.00;1.90;;;;;;;15.74;39.90;101952.81;4954994;28;20077;-81
2022/03/04 01:25:11;;;;;;;4.28;1.67;;;;;;;15.75;39.95;101951.69;4954044;29;20027;-84
2022/03/04 01:27:37;;;;;;;4.68;1.70;;;;;;;15.77;39.51;101957.69;4953939;29;20087;-84
2022/03/04 01:30:08;;;;;;;3.70;1.65;;;;;;;15.74;39.98;101963.84;4954030;29;20394;-84
2022/03/04 01:32:35;;;;;;;2.33;1.50;;;;;;;15.73;39.75;101956.72;4953963;29;20023;-81
2022/03/04 01:35:01;;;;;;;3.35;1.80;;;;;;;15.72;39.56;101960.59;4954971;28;20050;-80
2022/03/04 01:37:26;;;;;;;3.33;2.45;;;;;;;15.66;39.62;101956.34;4955257;28;20081;-85
2022/03/04 01:39:52;;;;;;;4.53;1.88;;;;;;;15.60;39.78;101960.34;4955126;29;20035;-80
2022/03/04 01:42:18;;;;;;;3.42;1.70;;;;;;;15.50;39.95;101959.50;4937504;29;20114;-80
2022/03/04 01:44:44;;;;;;;3.80;2.17;;;;;;;15.16;40.08;101959.28;4937736;29;20122;-81
2022/03/04 01:47:10;;;;;;;4.10;1.90;;;;;;;15.13;40.08;101948.91;4954825;29;20027;-80
2022/03/04 01:49:35;;;;;;;4.38;2.08;;;;;;;14.89;40.37;101944.56;4937595;29;20031;-84
2022/03/04 01:52:02;;;;;;;3.00;1.50;;;;;;;14.87;40.42;101949.53;4954707;29;20066;-82
2022/03/04 01:54:27;;;;;;;4.82;1.90;;;;;;;14.76;40.25;101950.09;4937652;29;20038;-80
2022/03/04 01:56:53;;;;;;;3.45;1.98;;;;;;;14.70;40.28;101955.72;4954725;29;20027;-80
2022/03/04 01:59:19;;;;;;;2.47;1.70;;;;;;;14.59;40.77;101953.53;4954870;29;20028;-85
2022/03/04 02:01:45;;;;;;;3.97;1.90;;;;;;;14.52;40.57;101953.97;4954692;29;20094;-80
2022/03/04 02:04:11;;;;;;;2.80;2.10;;;;;;;14.51;40.65;101948.75;4937449;29;20134;-84
2022/03/04 02:06:37;;;;;;;7.32;2.40;;;;;;;14.31;40.98;101950.00;4937422;29;20030;-81
2022/03/04 02:09:03;;;;;;;5.00;2.42;;;;;;;14.34;40.85;101955.69;4937317;29;20035;-80
2022/03/04 02:11:29;;;;;;;7.65;2.28;;;;;;;14.36;40.82;101958.16;4954648;29;20031;-81
2022/03/04 02:13:55;;;;;;;4.28;2.83;;;;;;;14.37;40.89;101966.09;4937253;29;20030;-81
2022/03/04 02:16:34;;;;;;;4.32;2.15;;;;;;;14.33;41.02;101965.06;4937108;29;20071;-80
2022/03/04 02:19:01;;;;;;;5.88;3.15;;;;;;;14.33;41.07;101965.06;4937419;29;20397;-80
2022/03/04 02:21:30;;;;;;;5.93;2.38;;;;;;;14.25;41.36;101970.47;4954475;29;20043;-80
2022/03/04 02:23:55;;;;;;;5.73;2.20;;;;;;;14.37;41.02;101966.09;4954520;29;20074;-80
2022/03/04 02:26:21;;;;;;;4.95;2.28;;;;;;;14.44;40.97;101982.97;4937050;29;20802;-80
2022/03/04 02:28:47;;;;;;;5.35;2.40;;;;;;;14.40;41.22;101970.94;4954366;29;20028;-80
2022/03/04 02:31:16;;;;;;;5.22;2.25;;;;;;;14.48;41.38;101976.88;4954449;29;20438;-83
2022/03/04 02:33:42;;;;;;;4.22;2.17;;;;;;;14.47;41.41;101978.00;4954427;28;20498;-79
2022/03/04 02:36:09;;;;;;;4.40;2.50;;;;;;;14.50;41.33;101980.13;4957216;29;20433;-80
2022/03/04 02:38:34;;;;;;;4.25;2.20;;;;;;;14.44;41.50;101987.66;4957816;29;20066;-80
2022/03/04 02:41:00;;;;;;;8.43;2.63;;;;;;;14.36;41.59;101991.16;4940791;29;20484;-83
2022/03/04 02:43:25;;;;;;;3.50;1.88;;;;;;;14.30;41.87;101992.38;4958155;29;20027;-80
2022/03/04 02:45:52;;;;;;;5.95;2.95;;;;;;;14.27;41.79;101990.22;4940867;29;20112;-80
2022/03/04 02:48:18;;;;;;;5.32;2.03;;;;;;;14.30;41.78;101987.69;4940783;29;20038;-80
2022/03/04 02:50:43;;;;;;;5.18;2.15;;;;;;;14.30;41.68;101993.19;4940855;29;20027;-80
2022/03/04 02:53:10;;;;;;;5.43;2.42;;;;;;;14.22;41.87;101991.16;4957926;29;20114;-80
2022/03/04 02:55:36;;;;;;;3.70;2.30;;;;;;;14.24;41.74;101988.09;4957802;29;20035;-79
2022/03/04 02:58:03;;;;;;;8.05;3.05;;;;;;;14.24;41.98;101994.41;4957661;29;20109;-80
2022/03/04 03:00:29;;;;;;;4.53;1.90;;;;;;;14.05;42.05;101993.69;4957722;29;20110;-80
2022/03/04 03:02:55;;;;;;;3.33;2.17;;;;;;;14.09;41.78;101994.72;4940523;29;20479;-80
2022/03/04 03:05:20;;;;;;;4.22;2.05;;;;;;;13.91;42.57;101995.66;4940320;29;20059;-80
2022/03/04 03:07:46;;;;;;;9.40;3.13;;;;;;;13.92;42.25;101986.28;4957586;29;20035;-81
2022/03/04 03:10:13;;;;;;;6.25;2.65;;;;;;;13.96;42.18;101992.78;4957638;29;20027;-82
2022/03/04 03:12:40;;;;;;;5.70;2.30;;;;;;;14.04;41.83;101992.06;4957497;29;20429;-80
2022/03/04 03:15:07;;;;;;;5.95;3.20;;;;;;;14.05;41.76;101991.75;4957556;29;20038;-79
2022/03/04 03:17:33;;;;;;;5.78;2.22;;;;;;;14.10;41.69;101988.09;4957438;29;20449;-80
2022/03/04 03:19:59;;;;;;;5.07;2.35;;;;;;;14.08;41.84;101995.84;4957406;29;20027;-80
2022/03/04 03:22:24;;;;;;;6.55;2.65;;;;;;;14.09;41.64;101987.28;4957491;29;20035;-81
2022/03/04 03:24:50;;;;;;;5.95;2.30;;;;;;;14.00;41.90;101993.81;4957455;29;20043;-80
2022/03/04 03:27:16;;;;;;;5.72;2.25;;;;;;;14.01;41.59;101996.25;4940035;29;20039;-79
2022/03/04 03:29:42;;;;;;;3.67;2.30;;;;;;;14.06;41.25;101989.84;4957481;29;20097;-79
2022/03/04 03:32:10;;;;;;;4.03;2.38;;;;;;;14.04;41.67;101992.06;4939898;29;20038;-84
2022/03/04 03:34:35;;;;;;;5.60;2.40;;;;;;;14.02;41.60;101999.81;4939857;29;20398;-80
2022/03/04 03:37:01;;;;;;;3.95;1.95;;;;;;;13.97;41.48;101992.47;4957167;29;20039;-80
2022/03/04 03:39:27;;;;;;;4.88;1.85;;;;;;;13.96;41.69;101998.28;4953944;29;20075;-80
2022/03/04 03:41:53;;;;;;;8.23;2.35;;;;;;;13.85;41.40;102003.16;4955769;29;20038;-80
2022/03/04 03:44:18;;;;;;;4.53;2.20;;;;;;;13.82;41.82;102004.56;4957033;28;20031;-80
2022/03/04 03:46:44;;;;;;;8.30;2.42;;;;;;;13.77;41.59;102007.44;4955294;28;20495;-79
2022/03/04 03:49:10;;;;;;;3.05;2.00;;;;;;;13.75;41.70;101993.19;4956980;28;20102;-80
2022/03/04 03:51:36;;;;;;;4.90;2.25;;;;;;;13.69;41.44;102002.66;4955681;29;20089;-79
2022/03/04 03:54:01;;;;;;;7.13;2.60;;;;;;;13.63;41.55;101995.63;4956889;28;20035;-80
2022/03/04 03:56:27;;;;;;;5.80;1.70;;;;;;;13.43;42.08;102007.78;4955619;29;20422;-80
2022/03/04 03:58:52;;;;;;;5.90;2.10;;;;;;;13.38;41.96;102007.88;4956822;28;20042;-80
2022/03/04 04:01:18;;;;;;;4.90;1.75;;;;;;;13.40;41.96;102011.13;4956455;28;20031;-81
2022/03/04 04:03:44;;;;;;;4.63;1.65;;;;;;;13.22;42.38;102023.75;4955387;29;20038;-80
2022/03/04 04:06:09;;;;;;;3.22;1.75;;;;;;;13.36;42.04;102020.25;4956617;28;20422;-79
2022/03/04 04:08:35;;;;;;;5.03;2.00;;;;;;;13.22;42.47;102023.75;4956604;28;20520;-80
2022/03/04 04:11:01;;;;;;;10.85;2.13;;;;;;;13.09;42.30;102027.25;4955262;29;20058;-80
2022/03/04 04:13:28;;;;;;;11.25;2.38;;;;;;;13.08;42.51;102031.13;4956655;28;20047;-80
2022/03/04 04:15:54;;;;;;;5.30;2.42;;;;;;;13.04;42.49;102039.13;4955140;29;20466;-81
2022/03/04 04:18:19;;;;;;;4.13;1.95;;;;;;;12.94;42.76;102039.28;4955267;28;20110;-80
2022/03/04 04:20:45;;;;;;;6.85;2.20;;;;;;;12.97;42.60;102043.34;4955186;28;20031;-80
2022/03/04 04:23:11;;;;;;;5.05;1.88;;;;;;;12.65;43.29;102050.38;4956429;28;20027;-80
2022/03/04 04:25:36;;;;;;;2.97;1.60;;;;;;;12.74;42.78;102054.09;4955096;28;20042;-80
2022/03/04 04:28:02;;;;;;;8.00;2.67;;;;;;;12.93;42.38;102050.56;4956352;28;20034;-84
2022/03/04 04:30:29;;;;;;;6.47;2.05;;;;;;;12.95;42.24;102057.38;4954961;29;20039;-84
2022/03/04 04:32:56;;;;;;;4.28;1.58;;;;;;;12.91;42.27;102063.75;4954898;29;20062;-80
2022/03/04 04:35:22;;;;;;;6.68;2.63;;;;;;;12.80;42.50;102056.78;4954822;29;20034;-84
2022/03/04 04:37:48;;;;;;;6.53;3.05;;;;;;;12.71;42.47;102059.38;4954595;29;20098;-80
2022/03/04 04:40:13;;;;;;;8.23;2.22;;;;;;;12.72;42.16;102063.75;4956101;28;20039;-80
2022/03/04 04:42:39;;;;;;;7.57;3.00;;;;;;;12.48;42.52;102066.53;4954874;29;20088;-83
2022/03/04 04:45:06;;;;;;;5.03;2.50;;;;;;;12.61;42.43;102059.50;4954784;29;20027;-83
2022/03/04 04:47:31;;;;;;;5.20;1.70;;;;;;;12.54;42.63;102065.34;4954688;29;20030;-80
2022/03/04 04:49:57;;;;;;;4.70;2.13;;;;;;;12.48;42.54;102066.53;4955909;28;20019;-80
2022/03/04 04:52:23;;;;;;;4.05;2.17;;;;;;;12.55;42.27;102056.03;4954760;29;20445;-80
2022/03/04 04:54:48;;;;;;;6.57;2.20;;;;;;;12.52;42.54;102056.59;4954475;28;20030;-82
2022/03/04 04:57:14;;;;;;;4.43;2.20;;;;;;;12.45;42.25;102064.34;4953898;28;20031;-80
2022/03/04 04:59:40;;;;;;;4.70;1.75;;;;;;;12.50;42.25;102072.53;4954427;29;20023;-80
2022/03/04 05:02:06;;;;;;;5.53;2.00;;;;;;;12.35;42.44;102065.31;4955641;28;20082;-80
2022/03/04 05:04:32;;;;;;;8.02;2.30;;;;;;;12.32;42.52;102063.16;4954406;28;20185;-80
2022/03/04 05:06:57;;;;;;;6.40;2.10;;;;;;;12.29;42.57;102071.94;4955507;28;20023;-84
2022/03/04 05:09:23;;;;;;;3.97;1.60;;;;;;;12.28;42.44;102075.00;4955576;28;20486;-80
2022/03/04 05:11:49;;;;;;;10.15;2.42;;;;;;;12.25;42.20;102075.59;4955561;29;20027;-80
2022/03/04 05:14:14;;;;;;;6.28;1.80;;;;;;;12.32;42.15;102076.88;4954305;29;20389;-80
2022/03/04 05:16:40;;;;;;;8.45;2.22;;;;;;;12.33;42.24;102085.91;4955260;28;20148;-81
2022/03/04 05:19:06;;;;;;;10.65;3.05;;;;;;;12.36;42.00;102082.56;4954093;29;20110;-80
2022/03/04 05:21:32;;;;;;;5.35;2.25;;;;;;;12.34;42.44;102087.53;4955495;28;20019;-80
2022/03/04 05:24:00;;;;;;;5.55;1.85;;;;;;;12.34;42.09;102082.06;4955121;28;20049;-80
2022/03/04 05:26:27;;;;;;;7.20;2.17;;;;;;;12.26;42.28;102082.69;4955194;28;20055;-80
2022/03/04 05:28:53;;;;;;;5.78;2.13;;;;;;;12.26;42.28;102089.00;4953965;29;20023;-80
2022/03/04 05:31:19;;;;;;;4.22;1.70;;;;;;;12.33;41.99;102094.13;4953870;29;20121;-80
2022/03/04 05:33:44;;;;;;;6.10;2.10;;;;;;;12.27;42.05;102098.03;4953779;29;20110;-80
2022/03/04 05:36:10;;;;;;;9.55;3.67;;;;;;;12.22;42.14;102098.88;4953642;29;20051;-80
2022/03/04 05:38:36;;;;;;;6.57;2.05;;;;;;;12.21;42.14;102095.34;4953950;28;20066;-80
2022/03/04 05:41:01;;;;;;;5.97;1.90;;;;;;;12.22;41.93;102099.69;4954589;29;20067;-80
2022/03/04 05:43:27;;;;;;;3.55;1.75;;;;;;;12.21;42.09;102095.34;4954220;29;20032;-80
2022/03/04 05:45:53;;;;;;;7.18;2.67;;;;;;;12.17;41.99;102097.03;4937623;29;20035;-80
2022/03/04 05:48:19;;;;;;;5.28;1.95;;;;;;;12.20;41.88;102101.94;4937634;29;20023;-80
2022/03/04 05:50:45;;;;;;;6.68;2.22;;;;;;;12.22;41.60;102096.16;4937511;29;20031;-82
2022/03/04 05:53:10;;;;;;;7.30;1.98;;;;;;;12.26;41.47;102102.69;4954398;29;20089;-81
2022/03/04 05:55:36;;;;;;;6.40;2.10;;;;;;;12.27;41.50;102109.00;4937329;29;20390;-83
2022/03/04 05:58:01;;;;;;;8.68;2.40;;;;;;;12.17;41.92;102108.00;4954643;29;20024;-81
2022/03/04 06:00:27;;;;;;;6.18;1.90;;;;;;;12.16;41.61;102111.81;4954786;29;20494;-82
2022/03/04 06:02:53;;;;;;;8.88;1.92;;;;;;;12.09;41.70;102111.38;4937471;29;20038;-80
2022/03/04 06:05:21;;;;;;;8.35;2.63;;;;;;;12.00;41.68;102115.81;4937408;29;20023;-80
2022/03/04 06:07:46;;;;;;;9.38;2.83;;;;;;;11.97;41.79;102113.69;4937330;29;20030;-80
2022/03/04 06:10:12;;;;;;;4.40;1.80;;;;;;;11.87;42.35;102114.59;4954362;28;20031;-80
2022/03/04 06:12:38;;;;;;;5.65;2.30;;;;;;;11.85;42.18;102116.78;4954472;29;20027;-80
2022/03/04 06:15:04;;;;;;;5.05;1.85;;;;;;;11.76;42.54;102123.16;4937296;29;20390;-81
2022/03/04 06:17:30;;;;;;;9.07;2.40;;;;;;;11.56;42.89;102118.66;4937184;29;20027;-80
2022/03/04 06:19:55;;;;;;;5.13;1.95;;;;;;;11.66;42.67;102121.31;4954461;29;20035;-80
2022/03/04 06:22:21;;;;;;;7.35;1.83;;;;;;;11.63;42.59;102130.09;4937218;29;20114;-80
2022/03/04 06:24:47;;;;;;;6.65;1.90;;;;;;;11.40;43.22;102134.38;4937110;29;20490;-81
2022/03/04 06:27:12;;;;;;;5.60;2.00;;;;;;;11.51;42.71;102127.72;4937167;29;20031;-80
2022/03/04 06:29:38;;;;;;;5.85;1.90;;;;;;;11.45;43.15;102134.34;4954354;29;20038;-80
2022/03/04 06:32:04;;;;;;;6.63;1.85;;;;;;;11.51;42.98;102132.41;4954348;29;20430;-80
2022/03/04 06:34:29;;;;;;;6.32;1.70;;;;;;;11.59;42.77;102138.06;4954206;29;20051;-82
2022/03/04 06:36:55;;;;;;;9.50;2.10;;;;;;;11.52;42.92;102144.97;4936999;29;20027;-83
2022/03/04 06:39:21;;;;;;;3.25;1.80;;;;;;;11.47;43.11;102148.56;4950290;29;20053;-80
2022/03/04 06:41:48;;;;;;;5.65;1.98;;;;;;;11.58;42.56;102147.38;4953082;29;20034;-80
2022/03/04 06:44:14;;;;;;;7.60;2.15;;;;;;;11.56;42.59;102146.88;4952822;28;20039;-80
2022/03/04 06:46:40;;;;;;;5.80;1.73;;;;;;;11.38;42.90;102111.94;4954082;28;20039;-82
2022/03/04 06:49:10;;;;;;;9.03;2.17;;;;;;;11.44;42.74;102140.94;4952972;29;20131;-84
2022/03/04 06:51:36;;;;;;;6.53;2.38;;;;;;;11.40;42.83;102142.59;4954294;28;20038;-84
2022/03/04 06:54:02;;;;;;;3.75;1.98;;;;;;;11.37;42.94;102143.16;4954244;28;20031;-83
2022/03/04 06:56:28;;;;;;;8.98;2.00;;;;;;;11.31;42.73;102138.81;4953966;28;20038;-80
2022/03/04 06:58:53;;;;;;;10.00;1.90;;;;;;;11.33;42.94;102148.38;4954125;29;20497;-81
2022/03/04 07:01:19;;;;;;;13.32;2.58;;;;;;;11.15;43.31;102156.44;4952863;28;20508;-79
2022/03/04 07:03:45;;;;;;;4.88;2.22;;;;;;;11.23;43.14;102161.31;4951266;29;20027;-79
2022/03/04 07:06:10;;;;;;;6.65;1.83;;;;;;;11.23;43.04;102161.31;4953376;28;20483;-80
2022/03/04 07:08:37;;;;;;;4.50;1.60;;;;;;;11.23;43.08;102166.78;4952792;29;20479;-79
2022/03/04 07:11:03;;;;;;;3.85;1.58;;;;;;;11.19;43.09;102163.81;4952044;28;20094;-82
2022/03/04 07:13:29;;;;;;;7.40;2.45;;;;;;;11.26;42.89;102166.19;4937178;28;20023;-80
2022/03/04 07:15:55;;;;;;;12.98;2.50;;;;;;;11.25;43.25;102173.59;4937883;28;20078;-82
2022/03/04 07:18:22;;;;;;;5.22;2.22;;;;;;;11.24;43.00;102177.44;4936709;28;20047;-80
2022/03/04 07:20:49;;;;;;;6.50;2.45;;;;;;;11.28;42.93;102169.50;4937658;28;20036;-80
2022/03/04 07:23:15;;;;;;;10.90;2.30;;;;;;;11.32;42.99;102179.56;4939626;28;20067;-81
2022/03/04 07:25:41;;;;;;;5.03;2.13;;;;;;;11.26;42.82;102186.19;4939563;28;20035;-81
2022/03/04 07:28:08;;;;;;;7.47;2.22;;;;;;;11.35;42.69;102206.41;4940959;28;20031;-80
2022/03/04 07:30:34;;;;;;;9.80;2.13;;;;;;;11.37;42.67;102197.91;4938895;28;20034;-79
2022/03/04 07:33:00;;;;;;;7.60;1.80;;;;;;;11.32;43.04;102193.25;4939566;28;20478;-79
2022/03/04 07:35:26;;;;;;;5.50;2.22;;;;;;;11.30;42.86;102192.72;4947181;28;20063;-78
2022/03/04 07:37:52;;;;;;;8.40;3.65;;;;;;;11.48;42.48;102198.63;4955785;28;20407;-85
2022/03/04 07:40:17;;;;;;;8.63;2.28;;;;;;;11.39;42.71;102201.16;4936147;28;20038;-78
2022/03/04 07:42:44;;;;;;;5.57;1.90;;;;;;;11.44;42.71;102203.06;4941260;28;20031;-79
2022/03/04 07:45:10;;;;;;;6.32;2.08;;;;;;;11.36;43.00;102204.47;4923229;28;20035;-78
2022/03/04 07:47:38;;;;;;;7.73;1.83;;;;;;;11.37;43.03;102204.19;4941507;28;20148;-79
2022/03/04 07:50:09;;;;;;;13.45;2.40;;;;;;;11.35;43.09;102213.78;4924138;28;20039;-80
2022/03/04 07:52:36;;;;;;;7.78;2.65;;;;;;;11.53;42.88;102210.38;4941858;28;20029;-81
2022/03/04 07:55:03;;;;;;;4.85;1.90;;;;;;;11.57;42.81;102211.47;4939494;28;20035;-80
2022/03/04 07:57:29;;;;;;;7.65;2.40;;;;;;;11.61;42.79;102215.25;4921205;28;20042;-78
2022/03/04 07:59:55;;;;;;;7.13;2.03;;;;;;;11.68;42.82;102221.22;4923263;28;20469;-77
2022/03/04 08:02:21;;;;;;;7.05;2.40;;;;;;;11.78;42.67;102219.50;4940472;28;20462;-77
2022/03/04 08:04:46;;;;;;;7.25;2.90;;;;;;;11.67;43.02;102233.28;4923476;28;20031;-78
2022/03/04 08:07:15;;;;;;;6.00;1.85;;;;;;;11.68;43.19;102229.44;4939829;28;20097;-79
2022/03/04 08:09:41;;;;;;;9.73;2.33;;;;;;;11.84;42.87;102245.81;4940872;28;21244;-82
2022/03/04 08:12:09;;;;;;;11.18;2.20;;;;;;;11.82;43.12;102234.31;4924144;28;20058;-78
2022/03/04 08:14:35;;;;;;;8.80;1.85;;;;;;;11.91;42.87;102236.16;4940740;28;20030;-79
2022/03/04 08:17:00;;;;;;;8.45;2.15;;;;;;;12.01;42.75;102235.25;4923301;28;20023;-78
2022/03/04 08:19:26;;;;;;;7.45;2.13;;;;;;;11.98;42.95;102233.09;4940926;28;20039;-80
2022/03/04 08:21:51;;;;;;;9.85;2.28;;;;;;;12.02;43.23;102242.41;4922570;28;20041;-79
2022/03/04 08:24:17;;;;;;;6.13;2.30;;;;;;;12.02;43.08;102241.56;4922916;28;20027;-77
2022/03/04 08:26:43;;;;;;;7.85;2.45;;;;;;;12.12;42.92;102245.03;4949099;28;20506;-78
2022/03/04 08:29:10;;;;;;;4.65;2.10;;;;;;;12.27;43.01;102252.31;4955172;29;20139;-78
2022/03/04 08:31:36;;;;;;;5.68;1.85;;;;;;;12.35;42.79;102250.88;4954544;28;20679;-82
2022/03/04 08:34:02;;;;;;;6.97;2.63;;;;;;;12.32;42.83;102245.94;4954492;29;20037;-78
2022/03/04 08:36:28;;;;;;;7.90;2.00;;;;;;;12.43;42.82;102247.50;4955392;29;20031;-77
2022/03/04 08:38:53;;;;;;;12.10;3.97;;;;;;;12.50;42.62;102256.22;4955336;29;20075;-77
2022/03/04 08:41:19;;;;;;;10.05;2.40;;;;;;;12.54;42.64;102254.50;4955083;29;20078;-77
2022/03/04 08:43:46;;;;;;;5.55;2.38;;;;;;;12.69;42.55;102250.81;4942085;28;20037;-77
2022/03/04 08:46:13;;;;;;;8.73;2.20;;;;;;;12.64;42.57;102254.44;4938850;28;20679;-77
2022/03/04 08:48:40;;;;;;;10.77;2.30;;;;;;;12.73;42.51;102249.94;4952641;28;20028;-77
2022/03/04 08:51:05;;;;;;;6.45;2.38;;;;;;;12.77;42.49;102256.50;4954261;29;20031;-77
2022/03/04 08:53:31;;;;;;;7.60;2.45;;;;;;;12.95;42.58;102267.81;4954185;29;20078;-79
2022/03/04 08:55:56;;;;;;;14.77;2.42;;;;;;;13.04;42.19;102269.63;4956091;28;20029;-82
2022/03/04 08:58:22;;;;;;;6.25;2.25;;;;;;;13.17;42.23;102265.34;4937810;29;20406;-78
2022/03/04 09:00:48;;;;;;;4.97;1.70;;;;;;;13.23;42.26;102272.44;4944094;28;20034;-78
2022/03/04 09:03:13;;;;;;;7.40;1.98;;;;;;;13.30;42.45;102270.16;4955392;29;20061;-82
2022/03/04 09:05:39;;;;;;;9.02;2.83;;;;;;;13.42;42.33;102263.41;4955584;29;20031;-79
2022/03/04 09:08:05;;;;;;;13.05;3.50;;;;;;;13.53;42.48;102264.94;4937954;29;20118;-79
2022/03/04 09:10:30;;;;;;;9.38;2.38;;;;;;;13.67;42.31;102265.78;4937987;29;20042;-79
2022/03/04 09:12:56;;;;;;;8.07;2.45;;;;;;;13.73;42.13;102264.63;4954701;29;20023;-80
2022/03/04 09:15:22;;;;;;;14.15;2.38;;;;;;;13.78;42.31;102266.47;4955072;29;20490;-78
2022/03/04 09:17:47;;;;;;;11.27;2.58;;;;;;;13.99;41.79;102265.06;4955166;29;20577;-79
2022/03/04 09:20:19;;;;;;;10.82;2.25;;;;;;;13.80;42.10;102258.75;4953497;29;20023;-81
2022/03/04 09:22:48;;;;;;;10.02;2.20;;;;;;;13.98;42.18;102270.84;4954783;29;20030;-82
2022/03/04 09:25:14;;;;;;;8.88;2.30;;;;;;;14.00;42.25;102241.97;4954841;29;20031;-79
2022/03/04 09:27:44;;;;;;;6.97;1.73;;;;;;;14.21;41.91;102263.59;4954664;29;20034;-78
2022/03/04 09:30:11;;;;;;;;;;;;;;;14.21;41.76;102269.94;4955319;29;20059;-78
2022/03/04 09:32:38;;;;;;;12.50;2.40;;;;;;;14.38;41.54;102263.88;4954074;29;19915;-81
2022/03/04 09:35:05;;;;;;;12.70;3.28;;;;;;;14.49;41.61;102265.34;4936911;29;20042;-77
2022/03/04 09:37:31;;;;;;;11.30;2.40;;;;;;;14.40;41.75;102270.69;4954515;29;20502;-78
2022/03/04 09:39:56;;;;;;;6.95;2.42;;;;;;;14.42;41.47;102257.44;4954752;29;20030;-78
2022/03/04 09:42:22;;;;;;;7.32;2.30;;;;;;;14.31;41.72;102275.25;4953143;29;20027;-80
2022/03/04 09:44:48;;;;;;;12.30;3.13;;;;;;;14.60;41.29;102271.50;4953667;28;20394;-78
2022/03/04 09:47:19;;;;;;;7.30;1.92;;;;;;;14.59;41.16;102267.09;4953235;29;20108;-78
2022/03/04 09:49:46;;;;;;;10.10;2.05;;;;;;;14.69;40.95;102272.41;4934463;29;20024;-79
2022/03/04 09:52:12;;;;;;;5.82;1.65;;;;;;;14.81;40.77;102270.00;4952900;29;20556;-79
2022/03/04 09:54:38;;;;;;;11.77;2.10;;;;;;;14.86;40.90;102267.13;4952830;29;20024;-80
2022/03/04 09:57:03;;;;;;;8.88;2.58;;;;;;;15.11;40.56;102273.25;4952942;29;20641;-78
2022/03/04 09:59:29;;;;;;;29.10;4.00;;;;;;;15.33;40.14;102273.31;4952956;29;20054;-78
2022/03/04 10:02:00;;;;;;;18.63;3.75;;;;;;;15.35;39.95;102271.09;4954298;29;20035;-78
2022/03/04 10:04:27;;;;;;;16.98;4.00;;;;;;;15.35;40.22;102281.31;4954416;29;20031;-77
2022/03/04 10:06:53;;;;;;;21.83;3.50;;;;;;;15.47;40.12;102276.88;4954595;29;20066;-78
2022/03/04 10:09:40;;;;;;;13.45;2.70;;;;;;;15.49;39.12;102280.16;4954466;29;20110;-77
2022/03/04 10:12:10;;;;;;;7.80;2.53;;;;;;;15.59;39.31;102279.13;4954450;29;20027;-77
2022/03/04 10:14:55;;;;;;;13.63;2.35;;;;;;;15.57;38.66;102283.28;4954414;29;20023;-77
2022/03/04 10:17:21;;;;;;;12.40;2.33;;;;;;;15.60;39.11;102279.94;4954447;29;20089;-77
2022/03/04 10:19:58;;;;;;;13.00;3.28;;;;;;;15.83;38.53;102276.13;4953070;29;20106;-78
2022/03/04 10:22:39;;;;;;;15.88;4.28;;;;;;;15.71;38.58;102279.41;4954425;29;20054;-77
2022/03/04 10:25:21;;;;;;;9.38;2.17;;;;;;;15.64;38.56;102276.28;4954353;29;20494;-78
2022/03/04 10:27:47;;;;;;;26.15;5.88;;;;;;;16.02;38.21;102282.28;4954297;29;20034;-78
2022/03/04 10:30:15;;;;;;;11.65;3.30;;;;;;;16.15;37.96;102265.97;4954294;29;20051;-77
2022/03/04 10:32:41;;;;;;;4.72;1.77;;;;;;;16.08;38.35;102281.00;4954201;29;20093;-78
2022/03/04 10:35:09;;;;;;;20.08;4.05;;;;;;;16.39;37.86;102274.72;4954127;29;20028;-78
2022/03/04 10:37:54;;;;;;;8.40;2.33;;;;;;;16.57;37.42;102262.69;4936965;29;20030;-78
2022/03/04 10:40:25;;;;;;;19.42;4.20;;;;;;;16.49;37.26;102282.75;4954272;29;20031;-79
2022/03/04 10:42:53;;;;;;;9.80;2.20;;;;;;;16.76;37.18;102278.22;4954238;29;20074;-78
2022/03/04 10:45:45;;;;;;;9.70;1.88;;;;;;;16.53;37.10;102278.22;4953725;29;20055;-78
2022/03/04 10:48:19;;;;;;;8.75;1.80;;;;;;;16.67;36.46;102280.09;4954129;29;20023;-78
2022/03/04 10:50:49;;;;;;;10.07;1.80;;;;;;;16.71;36.43;102278.38;4952659;29;20028;-78
2022/03/04 10:53:27;;;;;;;10.13;2.25;;;;;;;16.71;36.09;102278.38;4954148;29;20038;-78
2022/03/04 10:56:07;;;;;;;13.88;2.50;;;;;;;16.71;35.72;102279.19;4955012;28;20023;-77
2022/03/04 10:58:41;;;;;;;16.63;2.50;;;;;;;16.62;35.20;102276.34;4940471;29;20023;-77
2022/03/04 11:01:16;;;;;;;19.23;3.97;;;;;;;16.88;35.66;102278.44;4957705;29;20039;-78
2022/03/04 11:03:42;;;;;;;14.90;3.83;;;;;;;17.01;35.36;102276.72;4940386;29;20458;-78
2022/03/04 11:06:13;;;;;;;8.07;2.70;;;;;;;17.12;35.01;102276.09;4957479;29;20024;-78
2022/03/04 11:08:39;;;;;;;6.03;1.70;;;;;;;17.13;35.14;102280.47;4940174;29;20382;-78
2022/03/04 11:11:07;;;;;;;10.60;2.53;;;;;;;17.14;35.05;102290.38;4957513;29;20023;-78
2022/03/04 11:13:37;;;;;;;9.43;2.65;;;;;;;17.17;34.50;102284.25;4957540;29;20058;-78
2022/03/04 11:16:05;;;;;;;9.45;2.78;;;;;;;17.26;34.42;102284.25;4940246;29;20505;-77
2022/03/04 11:18:32;;;;;;;16.20;2.67;;;;;;;17.35;34.32;102279.56;4956775;29;20027;-78
2022/03/04 11:20:59;;;;;;;9.50;2.13;;;;;;;17.38;34.29;102278.09;4956319;29;20479;-78
2022/03/04 11:23:30;;;;;;;9.48;2.47;;;;;;;17.09;33.90;102278.69;4957329;29;20062;-78